Terminal Aerodrome Forecast
Issued by NWS Duluth, MN

Home | Current Version | Previous Version | Text Only | Print | Product List | Glossary On
Versions: 1 2 3 4 5 6 7 8 9 10 11 12 13 14 15 16 17 18 19 20 21 22 23 24 25 26 27 28
000
FTUS43 KDLH 262341
TAFDLH
TAF
KDLH 262341Z 2700/2724 31012KT P6SM SCT100
     FM270200 30008KT P6SM SCT100
     FM270800 16004KT 5SM -SN BKN040
     FM271200 15005KT 4SM -SN SCT025 BKN035
     FM271600 13007KT P6SM BKN100=

USA.gov is the U.S. government's official web portal to all federal, state and local government web resources and services.